createdAt,value
2022-09-02T00:01:35.484Z,101649.72
2022-09-02T00:03:38.190Z,101592.69
2022-09-02T00:05:42.049Z,101596.84
2022-09-02T00:07:45.845Z,101520.66
2022-09-02T00:09:48.390Z,101625.34
2022-09-02T00:11:53.024Z,101626.28
2022-09-02T00:13:57.786Z,101649.75
2022-09-02T00:16:00.590Z,101648.22
2022-09-02T00:18:04.881Z,101627.78
2022-09-02T00:20:11.202Z,101642.91
2022-09-02T00:22:13.831Z,101580.78
2022-09-02T00:24:17.381Z,101619.91
2022-09-02T00:26:20.894Z,101643.47
2022-09-02T00:28:23.591Z,101601.19
2022-09-02T00:30:26.800Z,101601.19
2022-09-02T00:32:29.602Z,101604.06
2022-09-02T00:34:33.030Z,101602.78
2022-09-02T00:36:35.771Z,101597.16
2022-09-02T00:38:39.870Z,101596.84
2022-09-02T00:40:50.758Z,101597.41
2022-09-02T00:42:53.746Z,101590.97
2022-09-02T00:44:56.409Z,101580.31
2022-09-02T00:46:58.971Z,101495.72
2022-09-02T00:49:28.009Z,101619.91
2022-09-02T00:51:38.478Z,101574.94
2022-09-02T00:53:44.890Z,101622.66
2022-09-02T00:55:50.567Z,101590.16
2022-09-02T00:58:09.286Z,101490.00
2022-09-02T01:00:34.515Z,101622.53
2022-09-02T01:02:40.898Z,101621.44
2022-09-02T01:04:46.742Z,101606.63
2022-09-02T01:06:49.432Z,101594.25
2022-09-02T01:09:03.201Z,101619.59
2022-09-02T01:11:06.724Z,101600.22
2022-09-02T01:13:19.572Z,101597.06
2022-09-02T01:15:22.552Z,101589.03
2022-09-02T01:17:26.341Z,101600.66
2022-09-02T01:19:39.525Z,101620.19
2022-09-02T01:21:53.915Z,101600.75
2022-09-02T01:23:56.866Z,101613.66
2022-09-02T01:25:59.610Z,101595.09
2022-09-02T01:28:08.446Z,101621.84
2022-09-02T01:30:15.145Z,101628.50
2022-09-02T01:32:18.566Z,101496.38
2022-09-02T01:34:21.207Z,101623.75
2022-09-02T01:36:23.954Z,101508.03
2022-09-02T01:38:26.581Z,101592.81
2022-09-02T01:40:31.271Z,101624.28
2022-09-02T01:42:33.926Z,101575.41
2022-09-02T01:44:44.165Z,101635.41
2022-09-02T01:46:47.720Z,101626.31
2022-09-02T01:48:51.413Z,101561.59
2022-09-02T01:50:59.564Z,101625.03
2022-09-02T01:53:03.885Z,101620.19
2022-09-02T01:55:08.817Z,101593.28
2022-09-02T01:57:12.056Z,101617.88
2022-09-02T01:59:18.233Z,101588.31
2022-09-02T02:01:21.218Z,101553.44
2022-09-02T02:03:25.438Z,101569.31
2022-09-02T02:05:30.858Z,101600.31
2022-09-02T02:07:45.882Z,101605.78
2022-09-02T02:09:49.627Z,101536.56
2022-09-02T02:11:52.860Z,101593.34
2022-09-02T02:13:55.497Z,101598.28
2022-09-02T02:15:58.361Z,101489.25
2022-09-02T02:18:01.954Z,101514.63
2022-09-02T02:20:07.411Z,101602.00
2022-09-02T02:22:11.089Z,101510.47
2022-09-02T02:24:14.453Z,101602.50
2022-09-02T02:26:17.397Z,101580.25
2022-09-02T02:28:20.202Z,101570.47
2022-09-02T02:30:24.069Z,101577.34
2022-09-02T02:32:27.126Z,101578.88
2022-09-02T02:34:29.962Z,101514.56
2022-09-02T02:36:32.918Z,101592.84
2022-09-02T02:38:38.237Z,101523.03
2022-09-02T02:40:42.017Z,101575.97
2022-09-02T02:42:44.717Z,101513.81
2022-09-02T02:44:47.318Z,101558.97
2022-09-02T02:46:50.214Z,101605.72
2022-09-02T02:48:52.823Z,101564.47
2022-09-02T02:50:55.915Z,101562.91
2022-09-02T02:52:58.643Z,101562.72
2022-09-02T02:55:02.040Z,101595.94
2022-09-02T02:57:06.186Z,101593.53
2022-09-02T02:59:08.981Z,101584.13
2022-09-02T03:01:11.817Z,101474.59
2022-09-02T03:03:44.748Z,101573.25
2022-09-02T03:05:50.322Z,101539.44
2022-09-02T03:07:54.248Z,101597.75
2022-09-02T03:09:58.050Z,101599.59
2022-09-02T03:12:00.937Z,101596.97
2022-09-02T03:14:05.487Z,101603.38
2022-09-02T03:16:09.317Z,101519.66
2022-09-02T03:18:11.983Z,101493.97
2022-09-02T03:20:16.746Z,101561.38
2022-09-02T03:22:22.889Z,101588.63
2022-09-02T03:24:26.731Z,101525.75
2022-09-02T03:26:29.358Z,101573.13
2022-09-02T03:28:33.699Z,101542.31
2022-09-02T03:30:41.541Z,101564.44
2022-09-02T03:32:44.604Z,101425.59
2022-09-02T03:34:47.808Z,101472.50
2022-09-02T03:36:50.519Z,101416.34
2022-09-02T03:38:54.052Z,101584.47
2022-09-02T03:41:03.927Z,101507.78
2022-09-02T03:43:06.698Z,101583.91
2022-09-02T03:45:11.415Z,101537.34
2022-09-02T03:47:15.128Z,101580.06
2022-09-02T03:49:17.785Z,101564.56
2022-09-02T03:51:22.156Z,101549.63
2022-09-02T03:53:25.333Z,101562.94
2022-09-02T03:55:33.111Z,101460.72
2022-09-02T03:57:37.039Z,101547.34
2022-09-02T03:59:39.734Z,101584.38
2022-09-02T04:01:42.689Z,101577.97
2022-09-02T04:03:45.728Z,101560.50
2022-09-02T04:05:50.852Z,101578.00
2022-09-02T04:07:53.717Z,101553.50
2022-09-02T04:09:56.527Z,101575.84
2022-09-02T04:11:59.172Z,101559.97
2022-09-02T04:14:02.055Z,101470.16
2022-09-02T04:16:15.889Z,101505.44
2022-09-02T04:18:19.025Z,101589.03
2022-09-02T04:20:21.781Z,101541.50
2022-09-02T04:22:24.463Z,101593.91
2022-09-02T04:24:27.254Z,101553.59
2022-09-02T04:26:30.085Z,101532.25
2022-09-02T04:28:34.885Z,101544.94
2022-09-02T04:30:42.688Z,101592.47
2022-09-02T04:32:46.828Z,101541.47
2022-09-02T04:34:49.981Z,101524.91
2022-09-02T04:36:54.318Z,101552.94
2022-09-02T04:38:58.429Z,101586.09
2022-09-02T04:41:15.165Z,101569.78
2022-09-02T04:43:18.326Z,101476.88
2022-09-02T04:45:24.576Z,101566.56
2022-09-02T04:47:29.580Z,101583.72
2022-09-02T04:49:33.348Z,101545.44
2022-09-02T04:51:36.096Z,101572.00
2022-09-02T04:53:41.419Z,101555.28
2022-09-02T04:55:44.248Z,101571.88
2022-09-02T04:57:49.374Z,101531.97
2022-09-02T04:59:52.037Z,101580.69
2022-09-02T05:01:56.595Z,101485.78
2022-09-02T05:04:09.890Z,101593.44
2022-09-02T05:06:27.290Z,101579.66
2022-09-02T05:08:33.683Z,101546.88
2022-09-02T05:10:39.890Z,101541.09
2022-09-02T05:12:43.054Z,101603.53
2022-09-02T05:14:48.923Z,101501.66
2022-09-02T05:16:56.454Z,101559.97
2022-09-02T05:19:24.983Z,101576.47
2022-09-02T05:21:34.439Z,101483.00
2022-09-02T05:23:37.794Z,101543.66
2022-09-02T05:25:43.385Z,101594.63
2022-09-02T05:28:12.835Z,101597.38
2022-09-02T05:30:15.993Z,101596.50
2022-09-02T05:32:23.287Z,101568.94
2022-09-02T05:34:28.289Z,101581.47
2022-09-02T05:36:34.738Z,101587.25
2022-09-02T05:38:37.482Z,101500.28
2022-09-02T05:40:40.166Z,101419.72
2022-09-02T05:42:45.051Z,101607.59
2022-09-02T05:44:51.226Z,101578.41
2022-09-02T05:46:56.587Z,101546.50
2022-09-02T05:49:19.189Z,101585.22
2022-09-02T05:51:26.327Z,101553.88
2022-09-02T05:53:30.961Z,101577.19
2022-09-02T05:55:35.640Z,101552.28
2022-09-02T05:57:39.572Z,101598.69
2022-09-02T05:59:44.840Z,101592.16
2022-09-02T06:01:51.955Z,101580.66
2022-09-02T06:03:55.563Z,101554.25
2022-09-02T06:06:04.415Z,101593.59
2022-09-02T06:08:11.087Z,101572.09
2022-09-02T06:10:26.267Z,101499.31
2022-09-02T06:12:31.138Z,101491.16
2022-09-02T06:14:35.028Z,101594.38
2022-09-02T06:16:38.652Z,101543.28
2022-09-02T06:18:47.010Z,101459.31
2022-09-02T06:20:50.430Z,101511.66
2022-09-02T06:22:53.397Z,101589.47
2022-09-02T06:24:56.608Z,101591.56
2022-09-02T06:27:02.130Z,101475.44
2022-09-02T06:29:05.886Z,101545.16
2022-09-02T06:31:16.170Z,101591.91
2022-09-02T06:33:20.259Z,101458.34
2022-09-02T06:35:25.448Z,101573.13
2022-09-02T06:37:30.105Z,101567.56
2022-09-02T06:39:33.824Z,101453.88
2022-09-02T06:41:39.880Z,101588.66
2022-09-02T06:43:46.290Z,101498.94
2022-09-02T06:45:54.819Z,101510.25
2022-09-02T06:47:58.149Z,101563.91
2022-09-02T06:50:01.760Z,101592.31
2022-09-02T06:52:08.811Z,101588.41
2022-09-02T06:54:17.050Z,101566.56
2022-09-02T06:56:23.189Z,101575.28
2022-09-02T06:58:25.914Z,101479.75
2022-09-02T07:00:29.512Z,101575.13
2022-09-02T07:02:32.534Z,101572.66
2022-09-02T07:04:57.041Z,101560.47
2022-09-02T07:07:00.452Z,101567.09
2022-09-02T07:09:09.753Z,101591.66
2022-09-02T07:11:23.840Z,101579.72
2022-09-02T07:13:29.207Z,101585.44
2022-09-02T07:15:32.427Z,101600.13
2022-09-02T07:17:35.527Z,101468.28
2022-09-02T07:19:40.320Z,101587.78
2022-09-02T07:21:43.712Z,101502.19
2022-09-02T07:23:47.688Z,101559.84
2022-09-02T07:25:51.169Z,101574.59
2022-09-02T07:27:55.166Z,101594.50
2022-09-02T07:29:59.333Z,101558.00
2022-09-02T07:32:03.416Z,101573.38
2022-09-02T07:34:07.687Z,101593.94
2022-09-02T07:36:12.918Z,101594.75
2022-09-02T07:38:17.476Z,101573.97
2022-09-02T07:40:20.396Z,101603.84
2022-09-02T07:42:24.720Z,101480.88
2022-09-02T07:44:28.464Z,101598.81
2022-09-02T07:46:32.302Z,101603.88
2022-09-02T07:48:36.176Z,101596.69
2022-09-02T07:50:39.203Z,101523.59
2022-09-02T07:52:45.215Z,101578.34
2022-09-02T07:54:47.841Z,101549.00
2022-09-02T07:56:50.984Z,101554.66
2022-09-02T07:58:55.229Z,101577.88
2022-09-02T08:00:58.173Z,101577.63
2022-09-02T08:03:01.886Z,101598.47
2022-09-02T08:05:10.913Z,101601.66
2022-09-02T08:07:13.538Z,101565.69
2022-09-02T08:09:16.176Z,101587.28
2022-09-02T08:11:42.866Z,101596.63
2022-09-02T08:13:45.990Z,101576.88
2022-09-02T08:15:50.841Z,101571.06
2022-09-02T08:17:53.524Z,101597.19
2022-09-02T08:19:56.905Z,101589.75
2022-09-02T08:22:08.501Z,101532.66
2022-09-02T08:24:11.485Z,101577.19
2022-09-02T08:26:14.245Z,101578.50
2022-09-02T08:28:16.902Z,101557.72
2022-09-02T08:30:19.637Z,101544.09
2022-09-02T08:32:22.234Z,101557.44
2022-09-02T08:34:25.664Z,101570.78
2022-09-02T08:36:28.772Z,101571.31
2022-09-02T08:38:31.662Z,101575.81
2022-09-02T08:40:42.007Z,101484.16
2022-09-02T08:42:52.022Z,101586.41
2022-09-02T08:45:06.015Z,101590.63
2022-09-02T08:47:16.459Z,101535.44
2022-09-02T08:49:31.082Z,101517.56
2022-09-02T08:52:04.344Z,101585.44
2022-09-02T08:54:32.538Z,101581.09
2022-09-02T08:56:35.177Z,101460.06
2022-09-02T08:58:43.479Z,101541.47
2022-09-02T09:01:30.039Z,101567.22
2022-09-02T09:04:12.773Z,101573.78
2022-09-02T09:06:31.044Z,101554.78
2022-09-02T09:08:47.746Z,101530.44
2022-09-02T09:11:18.483Z,101563.31
2022-09-02T09:14:03.301Z,101568.06
2022-09-02T09:16:37.816Z,101568.28
2022-09-02T09:18:55.462Z,101539.59
2022-09-02T09:20:58.104Z,101374.38
2022-09-02T09:23:09.687Z,101442.91
2022-09-02T09:25:16.297Z,101561.50
2022-09-02T09:27:23.456Z,101538.84
2022-09-02T09:29:26.982Z,101525.56
2022-09-02T09:31:32.558Z,101454.59
2022-09-02T09:34:17.556Z,101549.88
2022-09-02T09:36:20.238Z,101520.53
2022-09-02T09:38:36.778Z,101497.53
2022-09-02T09:40:39.574Z,101481.97
2022-09-02T09:42:45.591Z,101528.16
2022-09-02T09:44:51.767Z,101530.25
2022-09-02T09:47:14.774Z,101522.47
2022-09-02T09:49:27.346Z,101507.22
2022-09-02T09:51:29.942Z,101507.31
2022-09-02T09:53:52.929Z,101520.19
2022-09-02T09:56:05.305Z,101535.78
2022-09-02T09:58:10.428Z,101519.16
2022-09-02T10:00:35.938Z,101476.97
2022-09-02T10:02:51.469Z,101523.03
2022-09-02T10:05:11.185Z,101502.28
2022-09-02T10:07:14.392Z,101497.63
2022-09-02T10:09:20.104Z,101512.41
2022-09-02T10:11:27.156Z,101504.47
2022-09-02T10:13:33.826Z,101477.31
2022-09-02T10:15:50.115Z,101493.78
2022-09-02T10:18:22.372Z,101517.13
2022-09-02T10:20:32.816Z,101508.72
2022-09-02T10:23:27.339Z,101509.88
2022-09-02T10:26:06.584Z,101483.69
2022-09-02T10:28:41.842Z,101503.38
2022-09-02T10:31:13.476Z,101453.69
2022-09-02T10:33:37.384Z,101507.31
2022-09-02T10:35:43.698Z,101509.66
2022-09-02T10:38:11.310Z,101451.25
2022-09-02T10:40:49.777Z,101479.78
2022-09-02T10:43:10.207Z,101493.72
2022-09-02T10:45:24.400Z,101465.84
2022-09-02T10:47:39.789Z,101498.50
2022-09-02T10:49:56.866Z,101481.31
2022-09-02T10:52:51.181Z,101483.97
2022-09-02T10:55:09.337Z,101503.94
2022-09-02T10:57:38.429Z,101473.50
2022-09-02T10:59:52.743Z,101429.81
2022-09-02T11:02:38.291Z,101496.63
2022-09-02T11:04:59.751Z,101495.84
2022-09-02T11:07:04.876Z,101451.06
2022-09-02T11:09:37.273Z,101433.16
2022-09-02T11:12:12.065Z,101486.19
2022-09-02T11:14:25.156Z,101485.44
2022-09-02T11:16:46.536Z,101439.34
2022-09-02T11:19:22.284Z,101478.09
2022-09-02T11:21:39.130Z,101476.28
2022-09-02T11:23:50.426Z,101467.94
2022-09-02T11:26:05.557Z,101445.84
2022-09-02T11:28:46.280Z,101466.13
2022-09-02T11:31:21.385Z,101419.09
2022-09-02T11:33:51.566Z,101434.66
2022-09-02T11:35:54.199Z,101412.19
2022-09-02T11:38:09.487Z,101461.28
2022-09-02T11:40:35.177Z,101448.38
2022-09-02T11:42:57.413Z,101457.09
2022-09-02T11:45:20.833Z,101468.94
2022-09-02T11:47:26.888Z,101471.41
2022-09-02T11:49:51.236Z,101463.91
2022-09-02T11:52:17.944Z,101424.88
2022-09-02T11:54:23.946Z,101441.38
2022-09-02T11:56:37.988Z,101443.56
2022-09-02T11:58:46.308Z,101433.75
2022-09-02T12:01:00.277Z,101444.25
2022-09-02T12:03:37.935Z,101411.72
2022-09-02T12:05:39.923Z,101436.63
2022-09-02T12:07:51.413Z,101410.22
2022-09-02T12:09:56.780Z,101429.41
2022-09-02T12:12:00.175Z,101415.97
2022-09-02T12:14:04.689Z,101411.03
2022-09-02T12:16:19.478Z,101433.22
2022-09-02T12:22:16.025Z,101421.88
2022-09-02T12:24:21.378Z,101398.97
2022-09-02T12:26:48.190Z,101426.66
2022-09-02T12:29:19.429Z,101387.94
2022-09-02T12:31:41.293Z,101392.44
2022-09-02T12:33:49.282Z,101429.97
2022-09-02T12:35:53.536Z,101399.56
2022-09-02T12:37:58.361Z,101317.97
2022-09-02T12:40:14.504Z,101391.88
2022-09-02T12:42:33.395Z,101391.94
2022-09-02T12:45:03.091Z,101408.09
2022-09-02T12:47:26.897Z,101378.00
2022-09-02T12:49:55.216Z,101345.09
2022-09-02T12:52:02.535Z,101409.72
2022-09-02T12:54:06.529Z,101381.88
2022-09-02T12:56:23.676Z,101390.03
2022-09-02T12:58:29.782Z,101380.19
2022-09-02T13:01:07.676Z,101399.78
2022-09-02T13:03:25.099Z,101408.75
2022-09-02T13:06:01.474Z,101375.63
2022-09-02T13:08:31.576Z,101401.38
2022-09-02T13:10:57.615Z,101388.03
2022-09-02T13:13:33.413Z,101389.59
2022-09-02T13:15:49.931Z,101377.06
2022-09-02T13:18:39.854Z,101394.97
2022-09-02T13:21:00.568Z,101377.19
2022-09-02T13:23:58.897Z,101365.88
2022-09-02T13:26:58.780Z,101374.16
2022-09-02T13:29:51.133Z,101369.69
2022-09-02T13:32:19.572Z,101366.56
2022-09-02T13:34:22.109Z,101325.44
2022-09-02T13:36:30.846Z,101268.50
2022-09-02T13:38:36.124Z,101351.09
2022-09-02T13:40:40.845Z,101337.06
2022-09-02T13:42:58.608Z,101366.38
2022-09-02T13:45:16.477Z,101365.00
2022-09-02T13:47:20.705Z,101323.44
2022-09-02T13:49:28.269Z,101320.31
2022-09-02T13:51:30.917Z,101343.88
2022-09-02T13:53:45.213Z,101328.91
2022-09-02T13:55:58.288Z,101261.56
2022-09-02T13:58:23.472Z,101323.53
2022-09-02T14:00:38.714Z,101352.09
2022-09-02T14:02:41.446Z,101277.06
2022-09-02T14:04:44.271Z,101324.50
2022-09-02T14:06:48.682Z,101162.28
2022-09-02T14:08:58.789Z,101310.59
2022-09-02T14:11:07.374Z,101290.91
2022-09-02T14:13:11.660Z,101337.75
2022-09-02T14:15:23.118Z,101337.28
2022-09-02T14:17:27.372Z,101294.97
2022-09-02T14:19:29.947Z,101238.47
2022-09-02T14:21:32.936Z,101227.25
2022-09-02T14:23:38.780Z,101210.19
2022-09-02T14:25:59.695Z,101311.72
2022-09-02T14:28:11.233Z,101302.75
2022-09-02T14:30:26.248Z,101289.59
2022-09-02T14:32:29.319Z,101217.41
2022-09-02T14:34:38.132Z,101226.09
2022-09-02T14:36:40.801Z,101274.25
2022-09-02T14:38:46.327Z,101324.50
2022-09-02T14:40:48.979Z,101272.69
2022-09-02T14:42:57.594Z,101185.16
2022-09-02T14:45:03.439Z,101233.63
2022-09-02T14:47:07.631Z,101306.31
2022-09-02T14:49:19.739Z,101290.47
2022-09-02T14:51:22.517Z,101279.13
2022-09-02T14:53:25.233Z,101250.91
2022-09-02T14:55:55.680Z,101283.88
2022-09-02T14:58:03.208Z,101309.88
2022-09-02T15:00:11.654Z,101299.50
2022-09-02T15:02:32.224Z,101255.91
2022-09-02T15:04:35.724Z,101289.75
2022-09-02T15:06:38.521Z,101285.13
2022-09-02T15:08:41.093Z,101200.38
2022-09-02T15:10:45.144Z,101297.81
2022-09-02T15:12:54.790Z,101271.72
2022-09-02T15:14:58.144Z,101236.31
2022-09-02T15:17:01.019Z,101240.16
2022-09-02T15:19:03.695Z,101259.50
2022-09-02T15:21:07.148Z,101292.50
2022-09-02T15:23:09.815Z,101276.56
2022-09-02T15:25:12.836Z,101215.63
2022-09-02T15:27:15.977Z,101284.78
2022-09-02T15:29:26.942Z,101211.66
2022-09-02T15:31:31.461Z,101196.66
2022-09-02T15:33:34.396Z,101224.72
2022-09-02T15:35:37.000Z,101193.34
2022-09-02T15:37:40.781Z,101252.09
2022-09-02T15:39:44.650Z,101189.44
2022-09-02T15:41:47.612Z,101171.50
2022-09-02T15:43:50.845Z,101291.25
2022-09-02T15:45:53.848Z,101194.78
2022-09-02T15:47:59.665Z,101207.75
2022-09-02T15:50:02.381Z,101284.66
2022-09-02T15:52:06.095Z,101266.97
2022-09-02T15:54:11.475Z,101269.59
2022-09-02T15:56:22.460Z,101259.06
2022-09-02T15:58:25.061Z,101226.28
2022-09-02T16:00:28.744Z,101246.97
2022-09-02T16:02:31.464Z,101245.94
2022-09-02T16:04:35.502Z,101276.84
2022-09-02T16:06:43.147Z,101289.41
2022-09-02T16:08:45.880Z,101252.00
2022-09-02T16:10:49.588Z,101268.59
2022-09-02T16:12:52.189Z,101214.19
2022-09-02T16:14:54.870Z,101254.38
2022-09-02T16:16:57.630Z,101281.28
2022-09-02T16:19:00.563Z,101264.97
2022-09-02T16:21:04.444Z,101261.22
2022-09-02T16:23:07.009Z,101255.03
2022-09-02T16:25:09.870Z,101258.19
2022-09-02T16:27:13.591Z,101255.88
2022-09-02T16:29:17.836Z,101256.59
2022-09-02T16:31:22.038Z,101270.75
2022-09-02T16:33:24.994Z,101178.78
2022-09-02T16:35:27.648Z,101253.81
2022-09-02T16:37:30.298Z,101234.59
2022-09-02T16:39:32.961Z,101212.09
2022-09-02T16:41:45.208Z,101265.94
2022-09-02T16:43:47.770Z,101230.69
2022-09-02T16:45:52.837Z,101248.69
2022-09-02T16:47:55.625Z,101252.59
2022-09-02T16:49:58.423Z,101229.75
2022-09-02T16:52:01.268Z,101229.25
2022-09-02T16:54:05.463Z,101251.13
2022-09-02T16:56:13.295Z,101134.69
2022-09-02T16:58:15.988Z,101152.75
2022-09-02T17:00:18.686Z,101203.97
2022-09-02T17:02:21.291Z,101250.28
2022-09-02T17:04:24.024Z,101232.34
2022-09-02T17:06:28.494Z,101229.75
2022-09-02T17:08:31.208Z,101183.16
2022-09-02T17:10:35.177Z,101269.13
2022-09-02T17:12:42.678Z,101160.41
2022-09-02T17:14:46.168Z,101166.34
2022-09-02T17:16:51.087Z,101226.47
2022-09-02T17:18:54.764Z,101263.66
2022-09-02T17:21:28.850Z,101259.03
2022-09-02T17:23:31.423Z,101249.84
2022-09-02T17:25:33.986Z,101225.28
2022-09-02T17:27:37.657Z,101244.81
2022-09-02T17:29:49.513Z,101168.81
2022-09-02T17:31:52.622Z,101256.91
2022-09-02T17:33:57.832Z,101263.78
2022-09-02T17:36:01.618Z,101242.31
2022-09-02T17:38:04.157Z,101242.69
2022-09-02T17:40:32.007Z,101239.59
2022-09-02T17:42:34.834Z,101213.09
2022-09-02T17:44:39.765Z,101273.09
2022-09-02T17:46:44.310Z,101264.94
2022-09-02T17:49:12.990Z,101219.91
2022-09-02T17:51:09.484Z,101176.59
2022-09-02T17:53:12.627Z,101236.91
2022-09-02T17:55:15.704Z,101166.13
2022-09-02T17:57:42.388Z,101256.34
2022-09-02T18:00:26.743Z,101241.53
2022-09-02T18:03:08.366Z,101241.28
2022-09-02T18:05:28.877Z,101265.09
2022-09-02T18:08:05.895Z,101271.06
2022-09-02T18:10:08.560Z,101245.94
2022-09-02T18:12:11.930Z,101201.09
2022-09-02T18:14:36.058Z,101275.53
2022-09-02T18:17:07.726Z,101268.72
2022-09-02T18:19:56.824Z,101235.59
2022-09-02T18:22:09.287Z,101176.69
2022-09-02T18:24:32.635Z,101287.69
2022-09-02T18:27:13.449Z,101256.38
2022-09-02T18:30:07.352Z,101273.94
2022-09-02T18:32:58.930Z,101286.94
2022-09-02T18:35:22.739Z,101285.38
2022-09-02T18:38:08.884Z,101293.69
2022-09-02T18:40:35.004Z,101292.38
2022-09-02T18:43:20.826Z,101296.66
2022-09-02T18:45:32.692Z,101299.06
2022-09-02T18:48:13.413Z,101294.06
2022-09-02T18:50:47.715Z,101191.81
2022-09-02T18:52:49.560Z,101284.31
2022-09-02T18:55:16.228Z,101302.69
2022-09-02T18:57:18.914Z,101216.03
2022-09-02T18:59:47.078Z,101304.31
2022-09-02T19:01:57.205Z,101277.75
2022-09-02T19:04:00.157Z,101275.66
2022-09-02T19:06:08.503Z,101259.16
2022-09-02T19:08:32.684Z,101284.72
2022-09-02T19:10:35.289Z,101286.88
2022-09-02T19:12:38.135Z,101299.13
2022-09-02T19:14:41.157Z,101274.19
2022-09-02T19:16:43.818Z,101192.84
2022-09-02T19:18:47.069Z,101316.78
2022-09-02T19:20:49.890Z,101291.25
2022-09-02T19:22:57.294Z,101207.75
2022-09-02T19:25:10.654Z,101316.81
2022-09-02T19:27:21.728Z,101289.16
2022-09-02T19:29:25.430Z,101293.41
2022-09-02T19:31:31.923Z,101307.28
2022-09-02T19:33:36.599Z,101297.97
2022-09-02T19:35:49.150Z,101287.59
2022-09-02T19:37:54.368Z,101296.94
2022-09-02T19:40:01.835Z,101212.59
2022-09-02T19:42:06.648Z,101216.59
2022-09-02T19:44:12.290Z,101299.88
2022-09-02T19:46:41.500Z,101333.41
2022-09-02T19:48:39.357Z,101275.09
2022-09-02T19:50:44.373Z,101322.47
2022-09-02T19:52:52.091Z,101303.84
2022-09-02T19:54:54.640Z,101295.59
2022-09-02T19:56:57.552Z,101301.47
2022-09-02T19:59:00.721Z,101262.38
2022-09-02T20:01:05.859Z,101296.69
2022-09-02T20:03:09.797Z,101264.75
2022-09-02T20:05:14.053Z,101335.81
2022-09-02T20:07:16.653Z,101286.03
2022-09-02T20:09:19.210Z,101315.31
2022-09-02T20:11:25.508Z,101323.31
2022-09-02T20:13:30.046Z,101341.41
2022-09-02T20:15:38.314Z,101340.84
2022-09-02T20:17:41.793Z,101254.28
2022-09-02T20:19:45.522Z,101289.19
2022-09-02T20:21:49.384Z,101309.41
2022-09-02T20:23:53.963Z,101346.44
2022-09-02T20:26:05.425Z,101348.00
2022-09-02T20:28:35.375Z,101316.88
2022-09-02T20:30:42.808Z,101279.00
2022-09-02T20:33:16.438Z,101310.69
2022-09-02T20:36:02.561Z,101342.13
2022-09-02T20:38:32.193Z,101343.44
2022-09-02T20:41:10.202Z,101348.75
2022-09-02T20:44:13.658Z,101352.97
2022-09-02T20:46:59.135Z,101350.78
2022-09-02T20:49:47.914Z,101348.34
2022-09-02T20:52:08.037Z,101360.84
2022-09-02T20:54:36.729Z,101360.03
2022-09-02T20:56:54.737Z,101328.81
2022-09-02T20:59:27.956Z,101330.66
2022-09-02T21:01:37.843Z,101362.38
2022-09-02T21:04:24.533Z,101366.59
2022-09-02T21:06:33.519Z,101376.13
2022-09-02T21:08:47.065Z,101332.44
2022-09-02T21:10:52.853Z,101231.13
2022-09-02T21:13:54.023Z,101365.47
2022-09-02T21:16:00.280Z,101275.31
2022-09-02T21:18:20.619Z,101306.97
2022-09-02T21:20:50.341Z,101368.84
2022-09-02T21:23:00.763Z,101342.09
2022-09-02T21:25:22.360Z,101322.88
2022-09-02T21:27:33.707Z,101370.59
2022-09-02T21:29:48.809Z,101375.38
2022-09-02T21:32:23.953Z,101343.81
2022-09-02T21:34:39.504Z,101345.09
2022-09-02T21:36:42.870Z,101336.81
2022-09-02T21:38:46.272Z,101347.47
2022-09-02T21:41:13.017Z,101374.66
2022-09-02T21:44:12.972Z,101358.09
2022-09-02T21:46:38.732Z,101365.56
2022-09-02T21:49:32.654Z,101369.50
2022-09-02T21:51:49.935Z,101316.66
2022-09-02T21:54:00.798Z,101201.63
2022-09-02T21:56:37.187Z,101373.66
2022-09-02T21:59:19.527Z,101370.16
2022-09-02T22:01:56.060Z,101371.47
2022-09-02T22:04:11.309Z,101275.13
2022-09-02T22:06:33.414Z,101331.13
2022-09-02T22:08:56.572Z,101366.88
2022-09-02T22:11:09.798Z,101374.34
2022-09-02T22:13:12.560Z,101349.19
2022-09-02T22:15:42.568Z,101374.03
2022-09-02T22:17:56.322Z,101336.88
2022-09-02T22:20:02.692Z,101345.41
2022-09-02T22:22:14.235Z,101376.31
2022-09-02T22:24:20.425Z,101373.09
2022-09-02T22:26:52.885Z,101344.56
2022-09-02T22:29:04.021Z,101254.03
2022-09-02T22:31:12.415Z,101324.44
2022-09-02T22:33:19.762Z,101328.94
2022-09-02T22:35:31.625Z,101379.34
2022-09-02T22:38:10.479Z,101238.44
2022-09-02T22:40:20.293Z,101380.06
2022-09-02T22:42:38.546Z,101316.88
2022-09-02T22:45:07.667Z,101355.75
2022-09-02T22:47:29.028Z,101369.38
2022-09-02T22:49:56.378Z,101348.22
2022-09-02T22:52:34.234Z,101343.91
2022-09-02T22:54:37.449Z,101344.22
2022-09-02T22:57:20.397Z,101308.16
2022-09-02T22:59:53.844Z,101325.41
2022-09-02T23:02:27.793Z,101357.22
2022-09-02T23:05:03.742Z,101339.31
2022-09-02T23:07:07.549Z,101294.28
2022-09-02T23:09:11.380Z,101332.09
2022-09-02T23:11:29.580Z,101352.16
2022-09-02T23:14:03.404Z,101347.34
2022-09-02T23:16:35.301Z,101352.84
2022-09-02T23:19:04.122Z,101350.94
2022-09-02T23:21:39.068Z,101329.75
2022-09-02T23:24:25.674Z,101355.06
2022-09-02T23:26:47.091Z,101325.94
2022-09-02T23:29:23.332Z,101305.06
2022-09-02T23:31:50.812Z,101344.66
2022-09-02T23:34:07.129Z,101348.63
2022-09-02T23:36:36.060Z,101318.44
2022-09-02T23:39:21.738Z,101310.44
2022-09-02T23:41:25.077Z,101304.56
2022-09-02T23:43:27.753Z,101222.09
2022-09-02T23:45:33.928Z,101283.19
2022-09-02T23:48:17.256Z,101318.91
2022-09-02T23:50:38.322Z,101330.91
2022-09-02T23:52:52.966Z,101308.50
2022-09-02T23:55:01.948Z,101324.84
2022-09-02T23:57:25.024Z,101326.16
